Time;durP1;ratioP1;P1;durP2;ratioP2;P2;SDS_P1;SDS_P2;PMS_P1;PMS_P2;Temp;Humidity;BMP_temperature;BMP_pressure;BME280_temperature;BME280_humidity;BME280_pressure;Samples;Min_cycle;Max_cycle;Signal;HPM_P1;HPM_P2
2021/04/24 00:02:24;;;;;;;4.95;4.42;;;;;;;5.27;100.00;100897.77;1764897;81;21362;-88
2021/04/24 00:04:52;;;;;;;6.65;4.92;;;;;;;5.28;100.00;100899.45;1764922;80;21595;-88
2021/04/24 00:07:20;;;;;;;7.00;4.97;;;;;;;5.26;100.00;100899.97;1764996;80;21096;-87
2021/04/24 00:09:49;;;;;;;5.65;5.15;;;;;;;5.23;100.00;100897.08;1771277;79;21144;-88
2021/04/24 00:12:17;;;;;;;6.28;4.78;;;;;;;5.23;100.00;100897.08;1796508;79;21116;-88
2021/04/24 00:14:46;;;;;;;5.67;5.17;;;;;;;5.20;100.00;100892.05;1798055;78;21357;-88
2021/04/24 00:17:14;;;;;;;6.75;5.90;;;;;;;5.18;100.00;100886.97;1788233;80;21185;-88
2021/04/24 00:19:43;;;;;;;5.87;5.10;;;;;;;5.17;100.00;100884.44;1788289;79;21181;-87
2021/04/24 00:22:12;;;;;;;8.40;5.67;;;;;;;5.15;100.00;100882.41;1788301;79;21179;-88
2021/04/24 00:24:40;;;;;;;5.78;5.17;;;;;;;5.13;100.00;100883.76;1788246;80;21592;-87
2021/04/24 00:27:08;;;;;;;6.25;5.20;;;;;;;5.12;100.00;100889.86;1788156;79;21445;-88
2021/04/24 00:29:36;;;;;;;6.35;5.33;;;;;;;5.13;100.00;100897.13;1788169;80;21131;-88
2021/04/24 00:32:05;;;;;;;5.10;4.60;;;;;;;5.11;100.00;100897.66;1788272;80;21111;-88
2021/04/24 00:34:33;;;;;;;5.92;4.45;;;;;;;5.12;100.00;100905.78;1788266;80;21175;-88
2021/04/24 00:37:03;;;;;;;6.15;4.60;;;;;;;5.13;100.00;100901.00;1788321;80;21036;-88
2021/04/24 00:39:35;;;;;;;5.95;4.42;;;;;;;5.12;100.00;100898.03;1788137;80;21356;-88
2021/04/24 00:42:06;;;;;;;9.55;4.40;;;;;;;5.11;100.00;100899.80;1788146;80;21155;-88
2021/04/24 00:44:34;;;;;;;4.75;4.30;;;;;;;5.10;100.00;100896.83;1792312;78;21179;-88
2021/04/24 00:47:03;;;;;;;6.28;4.40;;;;;;;5.09;100.00;100897.73;1740361;80;21116;-88
2021/04/24 00:49:33;;;;;;;4.42;4.03;;;;;;;5.07;100.00;100902.13;1762169;81;21112;-88
2021/04/24 00:52:01;;;;;;;5.28;4.53;;;;;;;5.04;100.00;100903.11;1785553;79;21192;-88
2021/04/24 00:54:29;;;;;;;5.12;3.98;;;;;;;5.01;100.00;100901.13;1825843;77;21164;-87
2021/04/24 00:56:57;;;;;;;6.30;4.42;;;;;;;4.95;100.00;100903.54;1805569;79;21155;-88
2021/04/24 00:59:25;;;;;;;7.03;4.22;;;;;;;4.90;100.00;100901.64;1826100;77;21105;-88
2021/04/24 01:01:54;;;;;;;4.95;4.45;;;;;;;4.87;100.00;100909.52;1805658;79;21154;-88
2021/04/24 01:04:22;;;;;;;6.58;4.83;;;;;;;4.84;100.00;100914.84;1826011;78;22286;-88
2021/04/24 01:06:50;;;;;;;4.70;4.20;;;;;;;4.80;100.00;100912.00;1805638;78;21111;-88
2021/04/24 01:09:18;;;;;;;8.68;4.83;;;;;;;4.78;100.00;100916.38;1826059;77;21096;-88
2021/04/24 01:11:46;;;;;;;7.17;4.60;;;;;;;4.76;100.00;100922.09;1805619;78;21138;-88
2021/04/24 01:14:15;;;;;;;6.40;4.80;;;;;;;4.73;100.00;100917.45;1818254;78;21262;-88
2021/04/24 01:16:43;;;;;;;6.33;4.50;;;;;;;4.70;100.00;100926.61;1798312;79;21335;-88
2021/04/24 01:19:20;;;;;;;6.83;4.53;;;;;;;4.66;100.00;100922.51;1775370;79;21728;-88
2021/04/24 01:22:15;;;;;;;6.47;4.97;;;;;;;4.63;100.00;100923.10;1763763;81;21104;-88
2021/04/24 01:24:45;;;;;;;5.53;4.12;;;;;;;4.60;100.00;100930.53;1767938;81;21154;-88
2021/04/24 01:27:13;;;;;;;5.20;4.30;;;;;;;4.57;100.00;100921.16;1792242;79;21107;-88
2021/04/24 01:29:43;;;;;;;5.15;4.25;;;;;;;4.57;100.00;100922.45;1799456;79;21191;-88
2021/04/24 01:32:12;;;;;;;6.72;4.53;;;;;;;4.57;100.00;100923.74;1799450;79;21143;-88
2021/04/24 01:34:47;;;;;;;6.50;4.78;;;;;;;4.57;100.00;100923.74;1799481;79;21512;-88
2021/04/24 01:37:17;;;;;;;5.20;4.67;;;;;;;4.55;100.00;100925.58;1767757;79;38648;-88
2021/04/24 01:39:45;;;;;;;5.37;4.70;;;;;;;4.54;100.00;100932.07;1799877;78;21159;-88
2021/04/24 01:42:13;;;;;;;7.12;4.47;;;;;;;4.55;100.00;100941.48;1776967;79;21411;-88
2021/04/24 01:44:41;;;;;;;4.78;4.28;;;;;;;4.56;100.00;100939.30;1793485;79;21061;-89
2021/04/24 01:47:09;;;;;;;6.53;5.25;;;;;;;4.58;100.00;100943.94;1772162;81;21167;-88
2021/04/24 01:49:42;;;;;;;5.62;5.03;;;;;;;4.61;100.00;100943.78;1803740;78;21154;-88
2021/04/24 01:52:17;;;;;;;6.75;4.62;;;;;;;4.63;100.00;100944.56;1799148;78;21109;-88
2021/04/24 01:54:46;;;;;;;5.58;4.67;;;;;;;4.66;100.00;100937.12;1710673;83;21197;-89
2021/04/24 01:57:14;;;;;;;6.22;5.05;;;;;;;4.70;100.00;100942.09;1731766;82;21200;-88
2021/04/24 01:59:42;;;;;;;6.33;4.70;;;;;;;4.71;100.00;100942.47;1731866;82;21482;-88
2021/04/24 02:02:10;;;;;;;4.95;4.45;;;;;;;4.74;100.00;100943.64;1731751;82;21140;-89
2021/04/24 02:04:38;;;;;;;5.50;4.95;;;;;;;4.74;100.00;100944.92;1731901;82;21172;-89
2021/04/24 02:07:11;;;;;;;5.65;5.08;;;;;;;4.69;100.00;100942.98;1731767;82;21377;-88
2021/04/24 02:09:40;;;;;;;5.10;4.60;;;;;;;4.64;100.00;100945.41;1731775;82;21211;-88
2021/04/24 02:12:11;;;;;;;5.40;4.90;;;;;;;4.56;100.00;100951.76;1731844;82;21184;-88
2021/04/24 02:14:46;;;;;;;6.65;5.00;;;;;;;4.51;100.00;100952.86;1731833;82;21215;-88
2021/04/24 02:17:18;;;;;;;5.58;4.95;;;;;;;4.45;100.00;100947.52;1731787;82;21552;-88
2021/04/24 02:19:49;;;;;;;5.97;4.70;;;;;;;4.39;100.00;100958.93;1731761;82;21214;-88
2021/04/24 02:22:19;;;;;;;6.30;4.97;;;;;;;4.35;100.00;100959.98;1731912;81;21223;-88
2021/04/24 02:24:58;;;;;;;6.20;4.92;;;;;;;4.30;100.00;100961.90;1709574;82;21152;-89
2021/04/24 02:27:28;;;;;;;5.67;4.70;;;;;;;4.30;100.00;100965.77;1731846;81;21140;-88
2021/04/24 02:29:56;;;;;;;4.77;4.33;;;;;;;4.31;100.00;100962.29;1732288;81;21616;-88
2021/04/24 02:32:32;;;;;;;6.17;4.75;;;;;;;4.33;100.00;100968.23;1731992;82;22276;-88
2021/04/24 02:35:13;;;;;;;6.33;5.35;;;;;;;4.34;100.00;100968.62;1731934;82;21077;-88
2021/04/24 02:37:41;;;;;;;6.58;5.50;;;;;;;4.34;100.00;100968.62;1732067;82;21136;-88
2021/04/24 02:47:34;;;;;;;6.58;5.47;;;;;;;4.54;100.00;100979.35;1731936;82;22401;-89
2021/04/24 02:50:06;;;;;;;6.70;5.00;;;;;;;4.54;100.00;100979.35;1731903;82;21624;-88
2021/04/24 02:52:38;;;;;;;7.28;5.37;;;;;;;4.58;100.00;100982.63;1756200;81;21555;-88
2021/04/24 02:55:09;;;;;;;6.05;4.87;;;;;;;4.61;100.00;100976.49;1709252;83;21138;-88
2021/04/24 02:57:37;;;;;;;7.40;5.40;;;;;;;4.60;100.00;100987.72;1738852;82;21176;-89
2021/04/24 03:00:12;;;;;;;6.78;5.33;;;;;;;4.58;100.00;100983.92;1738712;82;21251;-88
2021/04/24 03:02:41;;;;;;;7.03;5.75;;;;;;;4.61;100.00;100989.39;1738595;82;21104;-88
2021/04/24 03:05:16;;;;;;;6.83;5.30;;;;;;;4.64;100.00;100990.09;1738780;82;21473;-89
2021/04/24 03:07:45;;;;;;;8.55;6.28;;;;;;;4.68;100.00;100985.63;1738823;82;21207;-88
2021/04/24 03:14:27;;;;;;;18.67;13.75;;;;;;;4.75;100.00;100998.64;1738170;82;21140;-85
2021/04/24 03:21:22;;;;;;;26.97;20.43;;;;;;;4.74;100.00;101005.56;1739314;82;21143;-87
2021/04/24 03:27:59;;;;;;;30.10;21.35;;;;;;;4.79;100.00;101001.92;1711423;83;20492;-86
2021/04/24 03:34:33;;;;;;;30.00;20.10;;;;;;;4.85;100.00;101001.20;1703388;84;21156;-87
2021/04/24 03:41:25;;;;;;;28.98;20.37;;;;;;;4.92;100.00;101015.97;1732700;82;21200;-88
2021/04/24 03:48:16;;;;;;;33.60;22.42;;;;;;;5.02;100.00;101016.38;1732517;82;21128;-87
2021/04/24 03:54:35;;;;;;;26.80;19.17;;;;;;;5.16;100.00;101018.34;1792543;79;21600;-86
2021/04/24 03:57:35;;;;;;;21.05;15.80;;;;;;;5.23;100.00;101011.98;1799904;79;21547;-86
2021/04/24 04:04:08;;;;;;;24.85;14.50;;;;;;;5.31;100.00;101024.08;1799464;79;21345;-88
2021/04/24 04:06:40;;;;;;;21.55;14.55;;;;;;;5.34;100.00;101023.92;1805742;79;21107;-89
2021/04/24 04:09:14;;;;;;;;;;;;;;;5.40;100.00;101028.44;1808361;79;21135;-88
2021/04/24 04:11:45;;;;;;;22.22;12.63;;;;;;;5.43;100.00;101032.15;1793699;80;20213;-89
2021/04/24 04:14:15;;;;;;;18.53;13.17;;;;;;;5.45;100.00;101024.70;1806055;78;21150;-89
2021/04/24 04:20:50;;;;;;;16.67;12.03;;;;;;;5.54;100.00;101027.33;1793433;80;21049;-88
2021/04/24 04:23:47;;;;;;;16.77;12.07;;;;;;;5.62;100.00;101037.28;1788264;79;21186;-88
2021/04/24 04:26:16;;;;;;;17.67;11.97;;;;;;;5.66;100.00;101041.41;1767800;80;21127;-89
2021/04/24 04:52:58;;;;;;;15.68;10.58;;;;;;;6.05;100.00;101062.86;1677891;84;21212;-89
2021/04/24 04:55:33;;;;;;;17.02;10.58;;;;;;;6.10;100.00;101071.22;1679528;85;21142;-91
2021/04/24 04:58:06;;;;;;;16.62;10.68;;;;;;;6.19;100.00;101061.72;1647943;85;21254;-93
2021/04/24 05:01:18;;;;;;;13.78;9.70;;;;;;;6.24;100.00;101062.31;1645838;85;21224;-94
2021/04/24 05:03:57;;;;;;;18.82;9.63;;;;;;;6.34;100.00;101065.74;1672635;84;21540;-92
2021/04/24 05:07:07;;;;;;;14.03;10.32;;;;;;;6.43;100.00;101067.87;1660017;84;21262;-91
2021/04/24 05:09:44;;;;;;;22.55;9.98;;;;;;;6.52;100.00;101066.12;1666591;84;21234;-92
2021/04/24 05:12:22;;;;;;;20.20;9.98;;;;;;;6.60;100.00;101071.73;1666876;84;21255;-91
2021/04/24 05:15:31;;;;;;;12.68;8.40;;;;;;;6.66;100.00;101071.03;1662659;85;21492;-92
2021/04/24 05:17:59;;;;;;;12.30;9.15;;;;;;;6.67;100.00;101061.06;1665558;85;21745;-92
2021/04/24 05:24:38;;;;;;;18.05;8.40;;;;;;;6.81;100.00;101069.42;1658454;85;21218;-93
2021/04/24 05:30:53;;;;;;;10.25;6.95;;;;;;;7.02;100.00;101088.14;1666948;83;21267;-92
2021/04/24 05:33:43;;;;;;;14.23;7.30;;;;;;;7.12;100.00;101094.52;1671913;83;21373;-92
2021/04/24 05:36:15;;;;;;;10.75;6.30;;;;;;;7.22;100.00;101091.83;1684152;83;21194;-87
2021/04/24 05:42:29;;;;;;;10.60;6.30;;;;;;;7.40;100.00;101099.53;1646859;85;21186;-92
2021/04/24 05:44:58;;;;;;;10.60;5.78;;;;;;;7.48;100.00;101090.88;1671652;83;21449;-92
2021/04/24 05:51:31;;;;;;;10.70;5.45;;;;;;;7.58;100.00;101098.98;1697957;82;21172;-87
2021/04/24 05:54:01;;;;;;;10.30;5.95;;;;;;;7.69;100.00;101090.61;1690768;83;21150;-88
2021/04/24 06:00:22;;;;;;;10.78;5.37;;;;;;;7.85;100.00;101104.87;1602745;88;21230;-88
2021/04/24 06:02:50;;;;;;;5.62;3.60;;;;;;;8.03;100.00;101097.33;1608189;87;21253;-88
2021/04/24 06:05:19;;;;;;;8.05;5.22;;;;;;;8.09;100.00;101107.00;1625013;86;21815;-86
2021/04/24 06:07:48;;;;;;;12.93;5.17;;;;;;;8.07;100.00;101113.55;1585849;88;21647;-87
2021/04/24 06:10:34;;;;;;;9.83;5.15;;;;;;;8.05;100.00;101120.61;1631203;85;21560;-87
2021/04/24 06:13:03;;;;;;;8.28;5.35;;;;;;;8.07;100.00;101125.23;1617053;87;21715;-85
2021/04/24 06:15:31;;;;;;;8.38;4.85;;;;;;;8.19;100.00;101120.66;1584465;88;21230;-86
2021/04/24 06:18:00;;;;;;;14.53;5.05;;;;;;;8.32;100.00;101119.94;1597845;86;21658;-86
2021/04/24 06:20:28;;;;;;;9.30;5.03;;;;;;;8.34;100.00;101118.92;1587806;88;21240;-85
2021/04/24 06:22:57;;;;;;;6.20;3.95;;;;;;;8.37;100.00;101114.05;1661617;84;21508;-85
2021/04/24 06:25:26;;;;;;;7.05;4.80;;;;;;;8.42;100.00;101130.17;1655451;84;21382;-85
2021/04/24 06:31:58;;;;;;;5.12;3.75;;;;;;;8.61;100.00;101133.03;1638285;84;21160;-92
2021/04/24 06:34:27;;;;;;;5.47;3.80;;;;;;;8.59;100.00;101134.87;1702935;82;21151;-91
2021/04/24 06:36:55;;;;;;;4.60;3.58;;;;;;;8.56;100.00;101131.15;1681303;83;21126;-90
2021/04/24 06:42:49;;;;;;;6.80;2.92;;;;;;;8.68;100.00;101145.55;1640680;86;21146;-92
2021/04/24 06:45:18;;;;;;;5.95;3.10;;;;;;;8.82;100.00;101139.55;1653331;86;21154;-91
2021/04/24 06:47:47;;;;;;;3.30;2.77;;;;;;;8.86;100.00;101137.60;1653349;86;21174;-89
2021/04/24 06:50:19;;;;;;;4.87;2.90;;;;;;;8.83;100.00;101133.88;1640806;85;21151;-90
2021/04/24 06:52:48;;;;;;;5.15;2.95;;;;;;;8.88;100.00;101134.91;1662636;85;21388;-90
2021/04/24 06:55:18;;;;;;;7.85;3.10;;;;;;;8.87;100.00;101140.58;1662498;85;21194;-91
2021/04/24 06:57:48;;;;;;;3.05;2.15;;;;;;;8.91;100.00;101145.94;1662650;86;21138;-90
2021/04/24 07:00:18;;;;;;;3.62;2.05;;;;;;;9.01;100.00;101139.75;1662609;86;21154;-91
2021/04/24 07:03:11;;;;;;;6.03;2.55;;;;;;;9.05;100.00;101136.51;1629680;86;21234;-90
2021/04/24 07:05:39;;;;;;;4.17;2.30;;;;;;;9.10;100.00;101137.88;1647211;85;21959;-89
2021/04/24 07:08:32;;;;;;;3.67;2.72;;;;;;;9.16;100.00;101139.27;1642433;85;21249;-91
2021/04/24 07:11:13;;;;;;;4.90;2.75;;;;;;;9.24;100.00;101138.82;1601078;88;21185;-92
2021/04/24 07:13:42;;;;;;;4.72;1.98;;;;;;;9.30;100.00;101152.25;1611962;86;21189;-90
2021/04/24 07:16:13;;;;;;;3.80;2.77;;;;;;;9.33;100.00;101155.16;1594334;86;21694;-90
2021/04/24 07:18:43;;;;;;;5.00;2.50;;;;;;;9.32;100.00;101154.78;1602551;87;21738;-90
2021/04/24 07:21:12;;;;;;;3.65;2.25;;;;;;;9.32;100.00;101150.88;1593755;88;21289;-89
2021/04/24 07:23:41;;;;;;;4.95;2.33;;;;;;;9.39;100.00;101159.97;1600361;87;21161;-90
2021/04/24 07:26:10;;;;;;;2.60;2.20;;;;;;;9.49;100.00;101160.70;1591377;87;21164;-88
2021/04/24 07:28:39;;;;;;;4.58;2.33;;;;;;;9.55;100.00;101149.44;1597472;87;21131;-89
2021/04/24 07:31:08;;;;;;;3.27;2.05;;;;;;;9.62;100.00;101151.20;1587147;88;22425;-89
2021/04/24 07:34:07;;;;;;;8.65;2.58;;;;;;;9.61;100.00;101159.45;1590517;89;21294;-86
2021/04/24 07:40:41;;;;;;;7.67;2.37;;;;;;;9.66;97.92;101157.86;1626742;86;21203;-87
2021/04/24 07:47:33;;;;;;;3.42;2.60;;;;;;;9.65;92.19;101156.22;1638410;87;21194;-88
2021/04/24 07:54:26;;;;;;;9.13;2.77;;;;;;;9.92;100.00;101161.89;1645080;86;21920;-88
2021/04/24 08:01:18;;;;;;;15.13;3.00;;;;;;;10.07;75.42;101158.79;1665721;86;21106;-88
2021/04/24 08:08:11;;;;;;;6.50;2.52;;;;;;;9.81;87.65;101153.95;1665560;86;21126;-88
2021/04/24 08:15:04;;;;;;;;;;;;;;;9.89;78.90;101160.33;1668087;86;21196;-88
2021/04/24 08:21:42;;;;;;;6.72;2.83;;;;;;;10.03;84.18;101157.30;1638340;85;21226;-87
2021/04/24 08:24:31;;;;;;;2.30;2.02;;;;;;;9.99;77.41;101163.65;1660934;84;21614;-88
2021/04/24 08:31:05;;;;;;;6.53;2.90;;;;;;;10.25;71.28;101164.56;1643718;86;21196;-88
2021/04/24 08:37:58;;;;;;;5.20;2.87;;;;;;;10.07;72.27;101149.68;1633230;86;21096;-87
2021/04/24 08:44:31;;;;;;;4.50;3.37;;;;;;;9.83;91.70;101152.06;1625786;87;21185;-88
2021/04/24 08:51:28;;;;;;;7.65;3.72;;;;;;;10.35;69.88;101143.52;1627220;88;21489;-88
2021/04/24 08:58:20;;;;;;;7.95;3.80;;;;;;;10.90;68.35;101148.59;1639896;87;21178;-88
2021/04/24 09:05:17;;;;;;;8.03;4.42;;;;;;;11.03;56.07;101140.77;1583464;89;21217;-87
2021/04/24 09:15:40;;;;;;;6.90;4.65;;;;;;;11.12;68.64;101151.87;1626803;85;21632;-94
2021/04/24 09:30:17;;;;;;;5.90;3.90;;;;;;;11.30;59.60;101151.52;1609026;87;21551;-91
2021/04/24 09:33:14;;;;;;;5.50;4.30;;;;;;;10.87;65.66;101152.25;1614256;87;21169;-90
2021/04/24 09:39:47;;;;;;;7.65;4.30;;;;;;;10.89;56.08;101145.63;1656483;85;21166;-90
2021/04/24 09:42:39;;;;;;;6.65;4.15;;;;;;;11.10;61.98;101147.68;1643911;86;21158;-91
2021/04/24 09:45:56;;;;;;;5.80;3.47;;;;;;;11.38;62.96;101134.86;1651263;86;21611;-92
2021/04/24 09:52:29;;;;;;;3.30;3.00;;;;;;;11.84;55.74;101130.76;1650141;86;21168;-89
2021/04/24 09:55:07;;;;;;;3.65;3.35;;;;;;;11.45;54.30;101144.41;1577524;90;21236;-88
2021/04/24 10:21:17;;;;;;;4.10;3.70;;;;;;;10.10;71.04;101144.26;1735601;81;21142;-90
2021/04/24 10:24:46;;;;;;;4.22;3.40;;;;;;;10.05;67.14;101132.88;1722219;81;21176;-91
2021/04/24 10:27:17;;;;;;;4.20;3.80;;;;;;;9.93;62.22;101145.36;1726977;81;21203;-88
2021/04/24 10:29:52;;;;;;;4.45;3.90;;;;;;;9.87;76.33;101147.05;1732595;80;21208;-89
2021/04/24 10:32:22;;;;;;;6.10;3.25;;;;;;;9.85;75.46;101145.02;1726308;81;21149;-88
2021/04/24 10:35:36;;;;;;;5.15;3.77;;;;;;;9.80;75.81;101158.30;1732465;80;21477;-89
2021/04/24 10:38:07;;;;;;;7.75;3.70;;;;;;;9.68;76.48;101153.41;1751475;81;21324;-89
2021/04/24 10:41:04;;;;;;;9.33;4.50;;;;;;;9.56;78.12;101154.19;1745349;81;21763;-89
2021/04/24 10:43:56;;;;;;;8.20;3.92;;;;;;;9.71;86.72;101162.78;1719440;82;21116;-90
2021/04/24 10:46:36;;;;;;;;;;;;;;;9.94;82.46;101162.64;1707790;83;21118;-89
2021/04/24 11:00:44;;;;;;;5.25;3.72;;;;;;;9.77;66.83;101178.03;1716035;81;21190;-95
2021/04/24 11:03:52;;;;;;;4.50;3.58;;;;;;;9.59;76.31;101198.19;1712881;82;21470;-95
2021/04/24 11:14:18;;;;;;;7.50;3.62;;;;;;;9.80;85.15;101176.52;1719751;81;21649;-90
2021/04/24 11:21:02;;;;;;;1.95;1.72;;;;;;;10.61;63.04;101166.18;1730276;80;20229;-89
2021/04/24 11:24:00;;;;;;;6.35;3.15;;;;;;;10.21;63.04;101178.24;1698511;82;21204;-90
2021/04/24 11:38:17;;;;;;;4.75;3.65;;;;;;;8.96;91.59;101198.47;1547394;91;21588;-90
2021/04/24 11:41:29;;;;;;;7.60;3.77;;;;;;;8.56;100.00;101205.12;1660145;85;21173;-89
2021/04/24 11:48:47;;;;;;;6.28;4.37;;;;;;;8.81;100.00;101200.67;1667298;84;21148;-89
2021/04/24 12:06:41;;;;;;;5.22;3.37;;;;;;;9.71;86.37;101183.59;1667082;86;21260;-89
2021/04/24 12:16:59;;;;;;;14.33;3.85;;;;;;;10.36;73.29;101177.73;1655004;84;21168;-93
2021/04/24 12:19:56;;;;;;;6.67;3.33;;;;;;;10.26;77.58;101181.38;1661924;83;21394;-94
2021/04/24 12:26:29;;;;;;;3.35;1.95;;;;;;;9.98;67.31;101174.50;1663179;84;21758;-92
2021/04/24 12:39:21;;;;;;;5.95;3.47;;;;;;;8.68;100.00;101262.39;1813932;78;21231;-89
2021/04/24 12:41:53;;;;;;;5.17;4.40;;;;;;;7.78;100.00;101290.19;1784728;79;21533;-91
2021/04/24 12:44:31;;;;;;;;;;;;;;;7.38;100.00;101313.36;1790788;80;21474;-90
2021/04/24 12:47:00;;;;;;;8.58;3.42;;;;;;;6.98;100.00;101305.45;1788235;79;20177;-91
2021/04/24 12:49:58;;;;;;;5.22;3.58;;;;;;;6.60;100.00;101305.08;1788187;80;21140;-91
2021/04/24 12:52:32;;;;;;;4.50;3.90;;;;;;;6.27;100.00;101304.02;1788208;80;21458;-91
2021/04/24 12:58:35;;;;;;;4.37;3.80;;;;;;;5.84;100.00;101289.95;1840573;77;21135;-91
2021/04/24 13:01:33;;;;;;;3.40;2.85;;;;;;;5.80;100.00;101259.14;1807785;79;21112;-90
2021/04/24 13:19:34;;;;;;;7.72;3.65;;;;;;;6.86;100.00;101251.22;1778557;80;21135;-88
2021/04/24 13:22:02;;;;;;;11.35;3.90;;;;;;;7.20;100.00;101254.72;1771926;80;21595;-88
2021/04/24 13:24:44;;;;;;;6.65;4.25;;;;;;;7.29;100.00;101258.58;1778313;80;21143;-88
2021/04/24 13:31:12;;;;;;;11.73;4.90;;;;;;;7.39;100.00;101259.33;1776983;80;21107;-90
2021/04/24 13:33:41;;;;;;;7.67;4.97;;;;;;;7.43;100.00;101260.00;1771608;80;21532;-89
2021/04/24 13:36:37;;;;;;;13.78;5.40;;;;;;;7.48;100.00;101262.36;1743409;82;21103;-90
2021/04/24 13:39:05;;;;;;;8.13;5.17;;;;;;;7.52;100.00;101264.72;1753160;80;21169;-89
2021/04/24 13:41:38;;;;;;;8.18;5.25;;;;;;;7.56;100.00;101268.84;1769254;81;21675;-90
2021/04/24 13:44:36;;;;;;;12.23;5.33;;;;;;;7.54;100.00;101282.77;1721922;82;21131;-90
2021/04/24 13:47:23;;;;;;;12.03;5.60;;;;;;;7.49;100.00;101282.18;1768712;81;21524;-90
2021/04/24 13:50:24;;;;;;;10.80;5.75;;;;;;;7.42;100.00;101283.80;1768725;81;21610;-91
2021/04/24 13:52:54;;;;;;;10.90;6.65;;;;;;;7.28;100.00;101304.83;1768808;81;21539;-89
2021/04/24 13:59:15;;;;;;;13.32;6.65;;;;;;;7.11;100.00;101300.03;1763844;80;21128;-90
2021/04/24 14:06:08;;;;;;;5.42;4.33;;;;;;;7.27;100.00;101300.12;1768776;81;21637;-90
2021/04/24 14:08:39;;;;;;;4.53;3.60;;;;;;;7.22;100.00;101313.30;1763922;80;21116;-90
2021/04/24 14:11:35;;;;;;;4.03;3.27;;;;;;;7.04;100.00;101315.06;1763845;81;21548;-90
2021/04/24 14:14:12;;;;;;;5.80;2.98;;;;;;;6.84;100.00;101303.52;1720786;82;21180;-90
2021/04/24 14:16:47;;;;;;;5.62;3.65;;;;;;;6.55;100.00;101320.82;1728021;81;21140;-90
2021/04/24 14:19:44;;;;;;;5.60;3.77;;;;;;;6.42;100.00;101318.43;1768883;80;21238;-91
2021/04/24 14:22:15;;;;;;;6.72;4.15;;;;;;;6.44;100.00;101322.63;1752848;81;21127;-91
2021/04/24 14:25:14;;;;;;;;;;;;;;;6.59;100.00;101323.66;1724183;81;21591;-92
2021/04/24 14:27:44;;;;;;;4.28;3.67;;;;;;;6.74;100.00;101315.61;1750270;81;20248;-91
2021/04/24 14:30:15;;;;;;;5.25;3.62;;;;;;;6.86;100.00;101324.53;1747952;80;21653;-93
2021/04/24 17:44:59;;;;;;;6.12;3.80;;;;;;;5.34;100.00;101436.32;1724087;81;21138;-89
2021/04/24 17:55:55;;;;;;;5.58;3.45;;;;;;;4.99;100.00;101441.97;1755608;81;21599;-88
2021/04/24 18:02:47;;;;;;;9.33;5.08;;;;;;;4.82;100.00;101455.96;1761547;80;21186;-90
2021/04/24 18:09:40;;;;;;;13.10;11.68;;;;;;;4.70;100.00;101454.68;1755858;80;21646;-91
2021/04/24 18:16:33;;;;;;;9.75;6.55;;;;;;;4.52;100.00;101462.19;1756577;81;21159;-90
2021/04/24 18:23:25;;;;;;;14.25;5.95;;;;;;;4.44;100.00;101456.92;1756508;81;21184;-91
2021/04/24 18:30:18;;;;;;;13.53;6.58;;;;;;;4.30;100.00;101458.23;1751337;81;21135;-90
2021/04/24 18:37:10;;;;;;;8.95;7.20;;;;;;;4.29;100.00;101464.75;1760234;80;21139;-90
2021/04/24 18:44:03;;;;;;;23.67;18.60;;;;;;;4.31;100.00;101466.38;1757268;80;21432;-92
2021/04/24 18:50:55;;;;;;;77.08;43.52;;;;;;;4.31;100.00;101459.92;1754895;81;21167;-92
2021/04/24 18:57:30;;;;;;;25.08;14.73;;;;;;;4.28;100.00;101463.06;1754944;81;21567;-92
2021/04/24 19:04:26;;;;;;;12.33;8.08;;;;;;;3.97;100.00;101471.39;1714781;83;21607;-90
2021/04/24 19:11:18;;;;;;;12.68;7.75;;;;;;;3.92;100.00;101473.30;1747004;81;21180;-91
2021/04/24 19:14:18;;;;;;;12.25;7.53;;;;;;;3.83;100.00;101477.45;1752231;80;21462;-91
2021/04/24 19:21:09;;;;;;;10.25;7.90;;;;;;;3.77;100.00;101480.64;1685663;85;21164;-90
2021/04/24 19:27:29;;;;;;;9.68;7.33;;;;;;;3.73;100.00;101483.37;1689836;83;21562;-91
2021/04/24 19:34:21;;;;;;;12.75;9.15;;;;;;;3.63;100.00;101484.95;1722074;83;21140;-88
2021/04/24 19:37:18;;;;;;;11.73;8.50;;;;;;;3.54;100.00;101488.27;1690193;83;21155;-87
2021/04/24 19:43:40;;;;;;;14.43;10.75;;;;;;;3.53;100.00;101496.88;1720390;82;21211;-88
2021/04/24 19:46:15;;;;;;;19.57;14.15;;;;;;;3.59;100.00;101492.39;1686019;85;22302;-88
2021/04/24 19:49:11;;;;;;;21.40;13.78;;;;;;;3.63;100.00;101491.39;1724839;83;21095;-88
2021/04/24 19:51:41;;;;;;;15.70;10.53;;;;;;;3.68;100.00;101491.24;1726154;83;21559;-88
2021/04/24 19:54:17;;;;;;;12.98;9.73;;;;;;;3.71;100.00;101491.16;1726276;83;21202;-88
2021/04/24 19:56:46;;;;;;;13.90;9.43;;;;;;;3.68;100.00;101498.14;1726243;83;21586;-89
2021/04/24 19:59:15;;;;;;;14.53;9.68;;;;;;;3.55;100.00;101496.40;1720356;83;21377;-89
2021/04/24 20:01:43;;;;;;;13.80;8.63;;;;;;;3.45;100.00;101493.25;1725071;82;21123;-89
2021/04/24 20:08:12;;;;;;;13.10;9.08;;;;;;;3.26;100.00;101494.27;1726128;83;21138;-89
2021/04/24 20:18:02;;;;;;;14.00;9.53;;;;;;;3.12;100.00;101495.98;1725897;83;21198;-88
2021/04/24 20:24:29;;;;;;;16.40;9.85;;;;;;;3.13;100.00;101496.36;1691076;84;21157;-89
2021/04/24 20:30:58;;;;;;;17.25;11.43;;;;;;;3.07;100.00;101500.41;1726184;83;21364;-88
2021/04/24 20:33:26;;;;;;;19.37;11.48;;;;;;;2.97;100.00;101504.98;1720416;83;21228;-90
2021/04/24 20:43:19;;;;;;;21.15;11.00;;;;;;;2.68;100.00;101504.93;1720535;83;21149;-87
2021/04/24 20:46:19;;;;;;;16.67;10.35;;;;;;;2.62;100.00;101508.10;1686512;84;22580;-88
2021/04/24 20:48:48;;;;;;;20.85;13.28;;;;;;;2.62;100.00;101506.81;1722916;81;21174;-88
2021/04/24 20:51:16;;;;;;;21.77;15.25;;;;;;;2.61;100.00;101514.13;1663869;84;21162;-88
2021/04/24 20:54:13;;;;;;;26.60;16.65;;;;;;;2.61;100.00;101517.98;1722052;83;21127;-88
2021/04/24 20:57:13;;;;;;;24.20;16.30;;;;;;;2.60;100.00;101517.61;1725631;83;21601;-90
2021/04/24 21:10:55;;;;;;;28.98;16.52;;;;;;;2.42;100.00;101526.21;1724685;83;21564;-88
2021/04/24 21:17:47;;;;;;;24.43;14.53;;;;;;;2.36;100.00;101537.95;1725802;83;21208;-89
2021/04/24 21:28:01;;;;;;;22.13;13.62;;;;;;;2.36;100.00;101541.80;1726330;83;21571;-88
2021/04/24 21:30:29;;;;;;;21.05;14.70;;;;;;;2.36;100.00;101540.06;1726427;83;21569;-88
2021/04/24 21:32:57;;;;;;;20.27;14.15;;;;;;;2.29;100.00;101538.53;1726407;83;21831;-88
2021/04/24 21:35:25;;;;;;;20.80;13.65;;;;;;;2.19;100.00;101543.50;1726270;83;21547;-88
2021/04/24 21:41:48;;;;;;;20.90;13.15;;;;;;;1.94;100.00;101545.84;1726472;83;21155;-89
2021/04/24 21:44:16;;;;;;;21.10;13.45;;;;;;;1.76;100.00;101548.41;1726491;83;21174;-89
2021/04/24 21:46:45;;;;;;;18.35;11.08;;;;;;;1.70;100.00;101547.66;1726322;83;22295;-88
2021/04/24 21:49:41;;;;;;;17.37;10.20;;;;;;;1.68;100.00;101543.44;1726195;81;21083;-88
2021/04/24 21:52:45;;;;;;;18.73;11.28;;;;;;;1.70;100.00;101543.80;1726334;83;21253;-89
2021/04/24 21:55:15;;;;;;;17.25;10.88;;;;;;;1.76;100.00;101537.69;1726247;81;21713;-89
2021/04/24 21:57:47;;;;;;;13.72;10.03;;;;;;;1.81;100.00;101542.27;1726221;83;21238;-88
2021/04/24 22:00:32;;;;;;;16.57;10.55;;;;;;;1.85;100.00;101538.75;1725996;83;22207;-88
2021/04/24 22:03:04;;;;;;;11.50;8.40;;;;;;;1.88;100.00;101541.69;1724767;83;21622;-88
2021/04/24 22:05:33;;;;;;;14.70;9.18;;;;;;;1.92;100.00;101540.75;1724754;83;21084;-89
2021/04/24 22:08:06;;;;;;;15.38;9.80;;;;;;;1.94;100.00;101538.96;1724603;82;21155;-89
2021/04/24 22:10:38;;;;;;;16.82;10.45;;;;;;;1.97;100.00;101537.62;1724956;83;21171;-88
2021/04/24 22:13:08;;;;;;;13.05;8.93;;;;;;;1.97;100.00;101537.62;1726325;81;21372;-89
2021/04/24 22:19:47;;;;;;;17.32;9.93;;;;;;;1.96;100.00;101542.80;1691287;84;20326;-88
2021/04/24 22:22:16;;;;;;;17.23;10.18;;;;;;;1.95;100.00;101544.96;1726265;83;21547;-89
2021/04/24 22:24:48;;;;;;;19.90;10.35;;;;;;;1.91;100.00;101540.34;1726348;83;21118;-89
2021/04/24 22:27:23;;;;;;;12.55;8.45;;;;;;;1.88;100.00;101536.09;1724880;83;21300;-88
2021/04/24 22:29:58;;;;;;;14.68;9.53;;;;;;;1.89;100.00;101535.67;1724769;83;21111;-88
2021/04/24 22:32:58;;;;;;;12.20;8.70;;;;;;;1.87;100.00;101537.00;1689711;85;21178;-89